sensor_id;sensor_type;location;lat;lon;timestamp;P1;durP1;ratioP1;P2;durP2;ratioP2
73512;SDS011;61754;55.008;73.348;2022-08-23T00:01:51;10.13;;;4.30;;
73512;SDS011;61754;55.008;73.348;2022-08-23T00:04:19;13.48;;;3.15;;
73512;SDS011;61754;55.008;73.348;2022-08-23T00:06:46;7.00;;;3.33;;
73512;SDS011;61754;55.008;73.348;2022-08-23T00:09:13;9.82;;;3.08;;
73512;SDS011;61754;55.008;73.348;2022-08-23T00:11:44;5.97;;;3.10;;
73512;SDS011;61754;55.008;73.348;2022-08-23T00:14:18;5.85;;;2.88;;
73512;SDS011;61754;55.008;73.348;2022-08-23T00:16:44;7.70;;;4.20;;
73512;SDS011;61754;55.008;73.348;2022-08-23T00:19:11;7.90;;;3.38;;
73512;SDS011;61754;55.008;73.348;2022-08-23T00:21:38;10.60;;;3.17;;
73512;SDS011;61754;55.008;73.348;2022-08-23T00:24:05;12.65;;;3.40;;
73512;SDS011;61754;55.008;73.348;2022-08-23T00:26:53;4.73;;;2.70;;
73512;SDS011;61754;55.008;73.348;2022-08-23T00:31:45;3.88;;;3.25;;
73512;SDS011;61754;55.008;73.348;2022-08-23T00:34:11;9.02;;;3.67;;
73512;SDS011;61754;55.008;73.348;2022-08-23T00:36:38;10.77;;;3.95;;
73512;SDS011;61754;55.008;73.348;2022-08-23T00:39:16;6.40;;;3.63;;
73512;SDS011;61754;55.008;73.348;2022-08-23T00:41:47;5.20;;;3.28;;
73512;SDS011;61754;55.008;73.348;2022-08-23T00:44:25;9.40;;;3.30;;
73512;SDS011;61754;55.008;73.348;2022-08-23T00:47:10;6.38;;;3.10;;
73512;SDS011;61754;55.008;73.348;2022-08-23T00:50:03;13.45;;;2.80;;
73512;SDS011;61754;55.008;73.348;2022-08-23T00:52:33;5.78;;;3.55;;
73512;SDS011;61754;55.008;73.348;2022-08-23T00:55:00;7.50;;;3.10;;
73512;SDS011;61754;55.008;73.348;2022-08-23T00:57:27;4.40;;;2.65;;
73512;SDS011;61754;55.008;73.348;2022-08-23T00:59:53;10.32;;;2.58;;
73512;SDS011;61754;55.008;73.348;2022-08-23T01:02:20;5.88;;;3.05;;
73512;SDS011;61754;55.008;73.348;2022-08-23T01:04:53;7.68;;;3.47;;
73512;SDS011;61754;55.008;73.348;2022-08-23T01:10:02;7.88;;;2.75;;
73512;SDS011;61754;55.008;73.348;2022-08-23T01:12:36;8.45;;;3.20;;
73512;SDS011;61754;55.008;73.348;2022-08-23T01:15:15;9.93;;;3.03;;
73512;SDS011;61754;55.008;73.348;2022-08-23T01:17:51;7.93;;;3.30;;
73512;SDS011;61754;55.008;73.348;2022-08-23T01:20:20;7.97;;;2.83;;
73512;SDS011;61754;55.008;73.348;2022-08-23T01:22:56;11.82;;;3.35;;
73512;SDS011;61754;55.008;73.348;2022-08-23T01:25:25;14.07;;;2.83;;
73512;SDS011;61754;55.008;73.348;2022-08-23T01:27:56;13.38;;;2.88;;
73512;SDS011;61754;55.008;73.348;2022-08-23T01:30:33;8.32;;;3.67;;
73512;SDS011;61754;55.008;73.348;2022-08-23T01:33:01;15.20;;;4.38;;
73512;SDS011;61754;55.008;73.348;2022-08-23T01:35:29;5.28;;;2.65;;
73512;SDS011;61754;55.008;73.348;2022-08-23T01:38:07;4.88;;;2.53;;
73512;SDS011;61754;55.008;73.348;2022-08-23T01:40:44;11.90;;;3.33;;
73512;SDS011;61754;55.008;73.348;2022-08-23T01:43:10;9.55;;;2.78;;
73512;SDS011;61754;55.008;73.348;2022-08-23T01:45:37;7.10;;;2.47;;
73512;SDS011;61754;55.008;73.348;2022-08-23T01:48:04;7.90;;;2.50;;
73512;SDS011;61754;55.008;73.348;2022-08-23T01:50:40;6.57;;;3.28;;
73512;SDS011;61754;55.008;73.348;2022-08-23T01:53:06;9.95;;;3.63;;
73512;SDS011;61754;55.008;73.348;2022-08-23T01:55:34;9.52;;;3.10;;
73512;SDS011;61754;55.008;73.348;2022-08-23T01:58:11;10.52;;;3.50;;
73512;SDS011;61754;55.008;73.348;2022-08-23T02:00:38;12.50;;;3.55;;
73512;SDS011;61754;55.008;73.348;2022-08-23T02:03:05;12.88;;;4.00;;
73512;SDS011;61754;55.008;73.348;2022-08-23T02:05:38;11.43;;;3.35;;
73512;SDS011;61754;55.008;73.348;2022-08-23T02:08:05;11.90;;;3.47;;
73512;SDS011;61754;55.008;73.348;2022-08-23T02:10:52;9.75;;;4.07;;
73512;SDS011;61754;55.008;73.348;2022-08-23T02:13:24;8.40;;;3.10;;
73512;SDS011;61754;55.008;73.348;2022-08-23T02:15:50;8.63;;;2.75;;
73512;SDS011;61754;55.008;73.348;2022-08-23T02:18:18;10.75;;;2.70;;
73512;SDS011;61754;55.008;73.348;2022-08-23T02:20:45;11.95;;;2.67;;
73512;SDS011;61754;55.008;73.348;2022-08-23T02:23:12;15.77;;;2.97;;
73512;SDS011;61754;55.008;73.348;2022-08-23T02:25:49;9.43;;;2.80;;
73512;SDS011;61754;55.008;73.348;2022-08-23T02:28:18;4.80;;;2.10;;
73512;SDS011;61754;55.008;73.348;2022-08-23T02:30:44;6.32;;;2.00;;
73512;SDS011;61754;55.008;73.348;2022-08-23T02:33:11;7.68;;;1.85;;
73512;SDS011;61754;55.008;73.348;2022-08-23T02:35:47;6.10;;;1.65;;
73512;SDS011;61754;55.008;73.348;2022-08-23T02:38:15;6.88;;;1.77;;
73512;SDS011;61754;55.008;73.348;2022-08-23T02:40:42;8.07;;;1.98;;
73512;SDS011;61754;55.008;73.348;2022-08-23T02:43:09;6.10;;;1.75;;
73512;SDS011;61754;55.008;73.348;2022-08-23T02:45:36;5.03;;;1.80;;
73512;SDS011;61754;55.008;73.348;2022-08-23T02:48:07;4.35;;;1.73;;
73512;SDS011;61754;55.008;73.348;2022-08-23T02:50:44;6.00;;;2.00;;
73512;SDS011;61754;55.008;73.348;2022-08-23T02:53:21;6.03;;;1.75;;
73512;SDS011;61754;55.008;73.348;2022-08-23T02:55:58;6.00;;;2.03;;
73512;SDS011;61754;55.008;73.348;2022-08-23T02:58:24;5.03;;;1.67;;
73512;SDS011;61754;55.008;73.348;2022-08-23T03:00:51;6.15;;;1.50;;
73512;SDS011;61754;55.008;73.348;2022-08-23T03:03:30;3.47;;;1.08;;
73512;SDS011;61754;55.008;73.348;2022-08-23T03:05:56;12.88;;;1.92;;
73512;SDS011;61754;55.008;73.348;2022-08-23T03:08:22;5.50;;;1.73;;
73512;SDS011;61754;55.008;73.348;2022-08-23T03:10:51;18.20;;;2.35;;
73512;SDS011;61754;55.008;73.348;2022-08-23T03:13:19;6.10;;;1.35;;
73512;SDS011;61754;55.008;73.348;2022-08-23T03:15:47;6.47;;;1.70;;
73512;SDS011;61754;55.008;73.348;2022-08-23T03:18:13;13.77;;;2.30;;
73512;SDS011;61754;55.008;73.348;2022-08-23T03:20:50;10.68;;;2.55;;
73512;SDS011;61754;55.008;73.348;2022-08-23T03:25:48;10.23;;;1.90;;
73512;SDS011;61754;55.008;73.348;2022-08-23T03:28:23;2.28;;;1.73;;
73512;SDS011;61754;55.008;73.348;2022-08-23T03:30:49;7.07;;;1.80;;
73512;SDS011;61754;55.008;73.348;2022-08-23T03:33:15;7.35;;;1.63;;
73512;SDS011;61754;55.008;73.348;2022-08-23T03:35:43;3.33;;;1.40;;
73512;SDS011;61754;55.008;73.348;2022-08-23T03:38:16;4.85;;;2.10;;
73512;SDS011;61754;55.008;73.348;2022-08-23T03:40:42;2.47;;;1.50;;
73512;SDS011;61754;55.008;73.348;2022-08-23T03:43:09;4.55;;;1.17;;
73512;SDS011;61754;55.008;73.348;2022-08-23T03:45:36;2.75;;;1.20;;
73512;SDS011;61754;55.008;73.348;2022-08-23T03:48:02;1.13;;;0.85;;
73512;SDS011;61754;55.008;73.348;2022-08-23T03:50:31;2.00;;;1.15;;
73512;SDS011;61754;55.008;73.348;2022-08-23T03:52:57;3.17;;;1.52;;
73512;SDS011;61754;55.008;73.348;2022-08-23T03:55:23;1.17;;;1.05;;
73512;SDS011;61754;55.008;73.348;2022-08-23T03:57:50;3.22;;;1.48;;
73512;SDS011;61754;55.008;73.348;2022-08-23T04:00:19;0.88;;;0.80;;
73512;SDS011;61754;55.008;73.348;2022-08-23T04:02:46;6.43;;;1.60;;
73512;SDS011;61754;55.008;73.348;2022-08-23T04:05:13;3.28;;;0.90;;
73512;SDS011;61754;55.008;73.348;2022-08-23T04:08:08;4.38;;;1.45;;
73512;SDS011;61754;55.008;73.348;2022-08-23T04:10:35;5.18;;;1.40;;
73512;SDS011;61754;55.008;73.348;2022-08-23T04:13:01;5.25;;;1.30;;
73512;SDS011;61754;55.008;73.348;2022-08-23T04:15:28;1.75;;;1.50;;
73512;SDS011;61754;55.008;73.348;2022-08-23T04:18:04;2.88;;;1.10;;
73512;SDS011;61754;55.008;73.348;2022-08-23T04:20:30;4.15;;;1.10;;
73512;SDS011;61754;55.008;73.348;2022-08-23T04:22:59;6.38;;;1.50;;
73512;SDS011;61754;55.008;73.348;2022-08-23T04:25:29;1.30;;;0.93;;
73512;SDS011;61754;55.008;73.348;2022-08-23T04:27:58;5.20;;;1.15;;
73512;SDS011;61754;55.008;73.348;2022-08-23T04:30:26;1.30;;;0.85;;
73512;SDS011;61754;55.008;73.348;2022-08-23T04:32:57;2.47;;;1.05;;
73512;SDS011;61754;55.008;73.348;2022-08-23T04:35:30;4.30;;;1.20;;
73512;SDS011;61754;55.008;73.348;2022-08-23T04:38:00;1.15;;;1.05;;
73512;SDS011;61754;55.008;73.348;2022-08-23T04:40:27;2.50;;;0.98;;
73512;SDS011;61754;55.008;73.348;2022-08-23T04:43:22;1.83;;;1.17;;
73512;SDS011;61754;55.008;73.348;2022-08-23T04:45:50;2.35;;;1.13;;
73512;SDS011;61754;55.008;73.348;2022-08-23T04:48:27;2.17;;;0.85;;
73512;SDS011;61754;55.008;73.348;2022-08-23T04:50:59;1.15;;;0.80;;
73512;SDS011;61754;55.008;73.348;2022-08-23T04:53:26;7.25;;;1.00;;
73512;SDS011;61754;55.008;73.348;2022-08-23T04:56:18;4.75;;;0.80;;
73512;SDS011;61754;55.008;73.348;2022-08-23T04:58:44;1.95;;;0.70;;
73512;SDS011;61754;55.008;73.348;2022-08-23T05:01:10;2.30;;;0.70;;
73512;SDS011;61754;55.008;73.348;2022-08-23T05:03:36;3.25;;;0.90;;
73512;SDS011;61754;55.008;73.348;2022-08-23T05:06:04;3.75;;;0.93;;
73512;SDS011;61754;55.008;73.348;2022-08-23T05:08:37;1.35;;;0.85;;
73512;SDS011;61754;55.008;73.348;2022-08-23T05:11:06;5.57;;;1.30;;
73512;SDS011;61754;55.008;73.348;2022-08-23T05:13:34;5.00;;;1.10;;
73512;SDS011;61754;55.008;73.348;2022-08-23T05:16:02;4.45;;;1.52;;
73512;SDS011;61754;55.008;73.348;2022-08-23T05:18:32;2.00;;;1.10;;
73512;SDS011;61754;55.008;73.348;2022-08-23T05:20:59;3.33;;;1.52;;
73512;SDS011;61754;55.008;73.348;2022-08-23T05:23:25;5.80;;;1.50;;
73512;SDS011;61754;55.008;73.348;2022-08-23T05:25:59;4.97;;;1.27;;
73512;SDS011;61754;55.008;73.348;2022-08-23T05:28:35;0.98;;;0.82;;
73512;SDS011;61754;55.008;73.348;2022-08-23T05:31:08;2.63;;;1.45;;
73512;SDS011;61754;55.008;73.348;2022-08-23T05:33:43;5.75;;;1.20;;
73512;SDS011;61754;55.008;73.348;2022-08-23T05:36:10;2.22;;;1.35;;
73512;SDS011;61754;55.008;73.348;2022-08-23T05:38:37;8.02;;;1.20;;
73512;SDS011;61754;55.008;73.348;2022-08-23T05:41:14;3.67;;;1.00;;
73512;SDS011;61754;55.008;73.348;2022-08-23T05:43:40;5.07;;;1.85;;
73512;SDS011;61754;55.008;73.348;2022-08-23T05:46:08;4.97;;;1.10;;
73512;SDS011;61754;55.008;73.348;2022-08-23T05:48:38;5.57;;;0.80;;
73512;SDS011;61754;55.008;73.348;2022-08-23T05:51:10;2.88;;;0.80;;
73512;SDS011;61754;55.008;73.348;2022-08-23T05:53:37;4.10;;;0.95;;
73512;SDS011;61754;55.008;73.348;2022-08-23T05:58:34;4.15;;;1.10;;
73512;SDS011;61754;55.008;73.348;2022-08-23T06:01:01;2.60;;;1.23;;
73512;SDS011;61754;55.008;73.348;2022-08-23T06:03:28;4.00;;;0.93;;
73512;SDS011;61754;55.008;73.348;2022-08-23T06:05:58;7.53;;;1.45;;
73512;SDS011;61754;55.008;73.348;2022-08-23T06:08:24;5.53;;;1.10;;
73512;SDS011;61754;55.008;73.348;2022-08-23T06:13:31;1.70;;;1.10;;
73512;SDS011;61754;55.008;73.348;2022-08-23T06:15:58;3.92;;;1.00;;
73512;SDS011;61754;55.008;73.348;2022-08-23T06:18:34;0.85;;;0.80;;
73512;SDS011;61754;55.008;73.348;2022-08-23T06:21:16;3.65;;;1.10;;
73512;SDS011;61754;55.008;73.348;2022-08-23T06:23:52;1.13;;;0.90;;
73512;SDS011;61754;55.008;73.348;2022-08-23T06:26:20;2.53;;;1.08;;
73512;SDS011;61754;55.008;73.348;2022-08-23T06:28:48;1.27;;;1.02;;
73512;SDS011;61754;55.008;73.348;2022-08-23T06:31:25;13.02;;;1.55;;
73512;SDS011;61754;55.008;73.348;2022-08-23T06:34:15;2.72;;;1.50;;
73512;SDS011;61754;55.008;73.348;2022-08-23T06:37:06;2.75;;;1.00;;
73512;SDS011;61754;55.008;73.348;2022-08-23T06:39:56;1.95;;;1.10;;
73512;SDS011;61754;55.008;73.348;2022-08-23T06:45:03;1.30;;;1.20;;
73512;SDS011;61754;55.008;73.348;2022-08-23T06:47:38;1.83;;;1.30;;
73512;SDS011;61754;55.008;73.348;2022-08-23T06:50:05;5.00;;;1.45;;
73512;SDS011;61754;55.008;73.348;2022-08-23T06:52:50;2.47;;;1.23;;
73512;SDS011;61754;55.008;73.348;2022-08-23T06:55:33;2.55;;;1.10;;
73512;SDS011;61754;55.008;73.348;2022-08-23T06:58:19;3.47;;;1.60;;
73512;SDS011;61754;55.008;73.348;2022-08-23T07:01:11;3.17;;;1.30;;
73512;SDS011;61754;55.008;73.348;2022-08-23T07:03:59;2.08;;;1.08;;
73512;SDS011;61754;55.008;73.348;2022-08-23T07:06:54;3.85;;;1.17;;
73512;SDS011;61754;55.008;73.348;2022-08-23T07:09:21;3.83;;;1.13;;
73512;SDS011;61754;55.008;73.348;2022-08-23T07:11:47;7.78;;;1.33;;
73512;SDS011;61754;55.008;73.348;2022-08-23T07:14:14;6.07;;;1.48;;
73512;SDS011;61754;55.008;73.348;2022-08-23T07:16:53;3.63;;;1.35;;
73512;SDS011;61754;55.008;73.348;2022-08-23T07:19:30;3.63;;;1.80;;
73512;SDS011;61754;55.008;73.348;2022-08-23T07:21:57;4.38;;;1.65;;
73512;SDS011;61754;55.008;73.348;2022-08-23T07:24:35;2.80;;;1.23;;
73512;SDS011;61754;55.008;73.348;2022-08-23T07:27:04;1.00;;;1.00;;
73512;SDS011;61754;55.008;73.348;2022-08-23T07:30:02;2.85;;;1.33;;
73512;SDS011;61754;55.008;73.348;2022-08-23T07:32:29;3.05;;;1.40;;
73512;SDS011;61754;55.008;73.348;2022-08-23T07:34:57;2.70;;;1.70;;
73512;SDS011;61754;55.008;73.348;2022-08-23T07:37:23;1.77;;;1.00;;
73512;SDS011;61754;55.008;73.348;2022-08-23T07:39:50;4.28;;;1.23;;
73512;SDS011;61754;55.008;73.348;2022-08-23T07:42:17;1.40;;;1.05;;
73512;SDS011;61754;55.008;73.348;2022-08-23T07:44:44;4.55;;;1.52;;
73512;SDS011;61754;55.008;73.348;2022-08-23T07:47:10;1.08;;;1.00;;
73512;SDS011;61754;55.008;73.348;2022-08-23T07:49:37;2.55;;;1.15;;
73512;SDS011;61754;55.008;73.348;2022-08-23T07:52:04;3.35;;;1.10;;
73512;SDS011;61754;55.008;73.348;2022-08-23T07:54:30;3.47;;;1.10;;
73512;SDS011;61754;55.008;73.348;2022-08-23T07:57:25;4.40;;;0.90;;
73512;SDS011;61754;55.008;73.348;2022-08-23T08:00:11;2.83;;;1.10;;
73512;SDS011;61754;55.008;73.348;2022-08-23T08:02:51;5.43;;;0.80;;
73512;SDS011;61754;55.008;73.348;2022-08-23T08:05:22;1.55;;;0.95;;
73512;SDS011;61754;55.008;73.348;2022-08-23T08:07:54;1.92;;;0.90;;
73512;SDS011;61754;55.008;73.348;2022-08-23T08:10:21;2.60;;;0.95;;
73512;SDS011;61754;55.008;73.348;2022-08-23T08:12:47;8.50;;;0.73;;
73512;SDS011;61754;55.008;73.348;2022-08-23T08:15:17;13.63;;;1.15;;
73512;SDS011;61754;55.008;73.348;2022-08-23T08:17:48;2.25;;;1.00;;
73512;SDS011;61754;55.008;73.348;2022-08-23T08:20:25;6.00;;;1.40;;
73512;SDS011;61754;55.008;73.348;2022-08-23T08:23:11;1.77;;;1.13;;
73512;SDS011;61754;55.008;73.348;2022-08-23T08:26:09;2.85;;;0.70;;
73512;SDS011;61754;55.008;73.348;2022-08-23T08:28:39;11.18;;;1.10;;
73512;SDS011;61754;55.008;73.348;2022-08-23T08:31:06;2.30;;;1.00;;
73512;SDS011;61754;55.008;73.348;2022-08-23T08:33:33;6.97;;;1.13;;
73512;SDS011;61754;55.008;73.348;2022-08-23T08:36:04;3.72;;;1.20;;
73512;SDS011;61754;55.008;73.348;2022-08-23T08:38:32;2.15;;;1.00;;
73512;SDS011;61754;55.008;73.348;2022-08-23T08:41:02;23.10;;;1.73;;
73512;SDS011;61754;55.008;73.348;2022-08-23T08:46:49;3.70;;;1.20;;
73512;SDS011;61754;55.008;73.348;2022-08-23T08:49:19;5.65;;;1.67;;
73512;SDS011;61754;55.008;73.348;2022-08-23T08:51:54;5.40;;;0.80;;
73512;SDS011;61754;55.008;73.348;2022-08-23T08:54:23;6.63;;;1.27;;
73512;SDS011;61754;55.008;73.348;2022-08-23T08:56:52;6.85;;;1.30;;
73512;SDS011;61754;55.008;73.348;2022-08-23T08:59:26;3.92;;;1.05;;
73512;SDS011;61754;55.008;73.348;2022-08-23T09:01:54;5.85;;;0.85;;
73512;SDS011;61754;55.008;73.348;2022-08-23T09:04:38;2.97;;;0.80;;
73512;SDS011;61754;55.008;73.348;2022-08-23T09:15:36;5.55;;;1.48;;
73512;SDS011;61754;55.008;73.348;2022-08-23T09:18:07;3.88;;;1.00;;
73512;SDS011;61754;55.008;73.348;2022-08-23T09:20:34;7.45;;;1.10;;
73512;SDS011;61754;55.008;73.348;2022-08-23T09:23:10;3.55;;;1.40;;
73512;SDS011;61754;55.008;73.348;2022-08-23T09:25:38;2.47;;;1.02;;
73512;SDS011;61754;55.008;73.348;2022-08-23T09:28:14;2.92;;;0.80;;
73512;SDS011;61754;55.008;73.348;2022-08-23T09:33:18;3.67;;;0.90;;
73512;SDS011;61754;55.008;73.348;2022-08-23T09:36:02;1.25;;;0.80;;
73512;SDS011;61754;55.008;73.348;2022-08-23T09:38:30;1.75;;;0.73;;
73512;SDS011;61754;55.008;73.348;2022-08-23T09:41:01;8.07;;;0.90;;
73512;SDS011;61754;55.008;73.348;2022-08-23T09:43:43;2.67;;;0.95;;
73512;SDS011;61754;55.008;73.348;2022-08-23T09:46:25;5.32;;;1.15;;
73512;SDS011;61754;55.008;73.348;2022-08-23T09:48:52;3.70;;;1.40;;
73512;SDS011;61754;55.008;73.348;2022-08-23T09:56:51;5.68;;;0.90;;
73512;SDS011;61754;55.008;73.348;2022-08-23T09:59:33;2.83;;;1.27;;
73512;SDS011;61754;55.008;73.348;2022-08-23T10:05:00;6.60;;;1.65;;
73512;SDS011;61754;55.008;73.348;2022-08-23T10:07:39;5.13;;;1.27;;
73512;SDS011;61754;55.008;73.348;2022-08-23T10:12:44;12.70;;;1.40;;
73512;SDS011;61754;55.008;73.348;2022-08-23T10:15:16;4.78;;;1.20;;
73512;SDS011;61754;55.008;73.348;2022-08-23T10:21:04;8.38;;;1.73;;
73512;SDS011;61754;55.008;73.348;2022-08-23T10:26:05;3.90;;;1.75;;
73512;SDS011;61754;55.008;73.348;2022-08-23T10:28:41;3.22;;;2.20;;
73512;SDS011;61754;55.008;73.348;2022-08-23T10:31:53;2.05;;;1.13;;
73512;SDS011;61754;55.008;73.348;2022-08-23T10:34:40;2.22;;;1.45;;
73512;SDS011;61754;55.008;73.348;2022-08-23T10:37:23;1.70;;;0.98;;
73512;SDS011;61754;55.008;73.348;2022-08-23T10:40:00;3.90;;;1.13;;
73512;SDS011;61754;55.008;73.348;2022-08-23T10:42:32;3.97;;;0.90;;
73512;SDS011;61754;55.008;73.348;2022-08-23T10:47:38;0.88;;;0.88;;
73512;SDS011;61754;55.008;73.348;2022-08-23T10:50:14;3.28;;;0.95;;
73512;SDS011;61754;55.008;73.348;2022-08-23T10:52:51;3.22;;;1.00;;
73512;SDS011;61754;55.008;73.348;2022-08-23T10:55:23;2.80;;;1.00;;
73512;SDS011;61754;55.008;73.348;2022-08-23T10:58:02;4.88;;;1.10;;
73512;SDS011;61754;55.008;73.348;2022-08-23T11:00:43;4.28;;;1.13;;
73512;SDS011;61754;55.008;73.348;2022-08-23T11:05:38;2.03;;;1.15;;
73512;SDS011;61754;55.008;73.348;2022-08-23T11:08:34;4.07;;;1.50;;
73512;SDS011;61754;55.008;73.348;2022-08-23T11:14:00;3.95;;;1.02;;
73512;SDS011;61754;55.008;73.348;2022-08-23T11:16:28;1.10;;;1.10;;
73512;SDS011;61754;55.008;73.348;2022-08-23T11:18:56;2.53;;;1.23;;
73512;SDS011;61754;55.008;73.348;2022-08-23T11:31:37;1.60;;;0.70;;
73512;SDS011;61754;55.008;73.348;2022-08-23T11:36:42;9.05;;;2.35;;
73512;SDS011;61754;55.008;73.348;2022-08-23T11:39:28;4.80;;;1.77;;
73512;SDS011;61754;55.008;73.348;2022-08-23T11:48:14;5.47;;;2.47;;
73512;SDS011;61754;55.008;73.348;2022-08-23T11:53:23;6.50;;;1.50;;
73512;SDS011;61754;55.008;73.348;2022-08-23T11:56:11;7.85;;;1.55;;
73512;SDS011;61754;55.008;73.348;2022-08-23T11:58:56;7.60;;;1.75;;
73512;SDS011;61754;55.008;73.348;2022-08-23T12:01:35;4.35;;;1.33;;
73512;SDS011;61754;55.008;73.348;2022-08-23T12:04:10;2.90;;;1.13;;
73512;SDS011;61754;55.008;73.348;2022-08-23T12:06:41;9.82;;;4.60;;
73512;SDS011;61754;55.008;73.348;2022-08-23T12:09:58;7.13;;;1.90;;
73512;SDS011;61754;55.008;73.348;2022-08-23T12:19:39;14.32;;;3.58;;
73512;SDS011;61754;55.008;73.348;2022-08-23T12:22:13;6.55;;;1.45;;
73512;SDS011;61754;55.008;73.348;2022-08-23T12:24:51;4.00;;;1.00;;
73512;SDS011;61754;55.008;73.348;2022-08-23T12:27:29;9.75;;;1.52;;
73512;SDS011;61754;55.008;73.348;2022-08-23T12:30:17;7.18;;;1.48;;
73512;SDS011;61754;55.008;73.348;2022-08-23T12:32:59;7.40;;;1.95;;
73512;SDS011;61754;55.008;73.348;2022-08-23T12:41:10;9.27;;;2.00;;
73512;SDS011;61754;55.008;73.348;2022-08-23T12:43:18;4.75;;;1.35;;
73512;SDS011;61754;55.008;73.348;2022-08-23T12:45:59;8.15;;;2.03;;
73512;SDS011;61754;55.008;73.348;2022-08-23T12:48:31;8.65;;;2.78;;
73512;SDS011;61754;55.008;73.348;2022-08-23T12:51:15;6.53;;;2.13;;
73512;SDS011;61754;55.008;73.348;2022-08-23T12:53:43;2.55;;;1.70;;
73512;SDS011;61754;55.008;73.348;2022-08-23T12:56:28;3.20;;;1.58;;
73512;SDS011;61754;55.008;73.348;2022-08-23T12:58:59;5.20;;;3.67;;
73512;SDS011;61754;55.008;73.348;2022-08-23T13:01:30;8.57;;;2.25;;
73512;SDS011;61754;55.008;73.348;2022-08-23T13:04:02;4.32;;;1.60;;
73512;SDS011;61754;55.008;73.348;2022-08-23T13:06:30;8.05;;;1.85;;
73512;SDS011;61754;55.008;73.348;2022-08-23T13:09:05;8.57;;;1.90;;
73512;SDS011;61754;55.008;73.348;2022-08-23T13:11:34;10.20;;;1.60;;
73512;SDS011;61754;55.008;73.348;2022-08-23T13:14:20;16.58;;;3.30;;
73512;SDS011;61754;55.008;73.348;2022-08-23T13:16:51;7.15;;;3.28;;
73512;SDS011;61754;55.008;73.348;2022-08-23T13:19:24;9.30;;;3.20;;
73512;SDS011;61754;55.008;73.348;2022-08-23T13:24:41;4.88;;;1.67;;
73512;SDS011;61754;55.008;73.348;2022-08-23T13:27:13;5.18;;;1.50;;
73512;SDS011;61754;55.008;73.348;2022-08-23T13:29:59;5.72;;;1.90;;
73512;SDS011;61754;55.008;73.348;2022-08-23T13:37:53;6.55;;;2.03;;
73512;SDS011;61754;55.008;73.348;2022-08-23T13:40:21;10.48;;;2.60;;
73512;SDS011;61754;55.008;73.348;2022-08-23T13:42:49;14.07;;;3.40;;
73512;SDS011;61754;55.008;73.348;2022-08-23T13:45:27;10.25;;;4.35;;
73512;SDS011;61754;55.008;73.348;2022-08-23T13:48:07;13.65;;;3.85;;
73512;SDS011;61754;55.008;73.348;2022-08-23T13:50:35;22.42;;;6.47;;
73512;SDS011;61754;55.008;73.348;2022-08-23T13:53:02;16.23;;;5.28;;
73512;SDS011;61754;55.008;73.348;2022-08-23T13:55:28;17.95;;;5.72;;
73512;SDS011;61754;55.008;73.348;2022-08-23T13:58:00;26.58;;;8.13;;
73512;SDS011;61754;55.008;73.348;2022-08-23T14:00:25;14.00;;;5.32;;
73512;SDS011;61754;55.008;73.348;2022-08-23T14:02:51;14.88;;;6.82;;
73512;SDS011;61754;55.008;73.348;2022-08-23T14:05:19;20.85;;;7.60;;
73512;SDS011;61754;55.008;73.348;2022-08-23T14:07:46;13.30;;;10.63;;
73512;SDS011;61754;55.008;73.348;2022-08-23T14:10:13;17.10;;;10.23;;
73512;SDS011;61754;55.008;73.348;2022-08-23T14:12:47;24.95;;;10.77;;
73512;SDS011;61754;55.008;73.348;2022-08-23T14:15:24;21.48;;;9.88;;
73512;SDS011;61754;55.008;73.348;2022-08-23T14:17:56;22.20;;;10.30;;
73512;SDS011;61754;55.008;73.348;2022-08-23T14:20:24;23.98;;;10.38;;
73512;SDS011;61754;55.008;73.348;2022-08-23T14:22:55;22.25;;;11.13;;
73512;SDS011;61754;55.008;73.348;2022-08-23T14:25:21;19.13;;;10.77;;
73512;SDS011;61754;55.008;73.348;2022-08-23T14:27:48;23.05;;;10.55;;
73512;SDS011;61754;55.008;73.348;2022-08-23T14:30:26;29.17;;;11.75;;
73512;SDS011;61754;55.008;73.348;2022-08-23T14:33:03;21.20;;;12.90;;
73512;SDS011;61754;55.008;73.348;2022-08-23T14:35:29;29.85;;;12.77;;
73512;SDS011;61754;55.008;73.348;2022-08-23T14:38:00;34.70;;;14.65;;
73512;SDS011;61754;55.008;73.348;2022-08-23T14:40:26;38.28;;;16.98;;
73512;SDS011;61754;55.008;73.348;2022-08-23T14:42:53;34.83;;;16.20;;
73512;SDS011;61754;55.008;73.348;2022-08-23T14:45:19;44.05;;;15.70;;
73512;SDS011;61754;55.008;73.348;2022-08-23T14:47:45;46.47;;;16.80;;
73512;SDS011;61754;55.008;73.348;2022-08-23T14:50:12;41.30;;;17.08;;
73512;SDS011;61754;55.008;73.348;2022-08-23T14:52:41;57.13;;;23.80;;
73512;SDS011;61754;55.008;73.348;2022-08-23T14:55:18;62.63;;;21.73;;
73512;SDS011;61754;55.008;73.348;2022-08-23T14:57:52;55.47;;;22.15;;
73512;SDS011;61754;55.008;73.348;2022-08-23T15:00:22;67.03;;;25.08;;
73512;SDS011;61754;55.008;73.348;2022-08-23T15:02:48;68.60;;;25.92;;
73512;SDS011;61754;55.008;73.348;2022-08-23T15:05:14;57.45;;;27.15;;
73512;SDS011;61754;55.008;73.348;2022-08-23T15:07:41;72.85;;;28.48;;
73512;SDS011;61754;55.008;73.348;2022-08-23T15:10:07;66.18;;;28.67;;
73512;SDS011;61754;55.008;73.348;2022-08-23T15:12:40;64.10;;;30.17;;
73512;SDS011;61754;55.008;73.348;2022-08-23T15:15:08;67.40;;;30.27;;
73512;SDS011;61754;55.008;73.348;2022-08-23T15:17:49;65.00;;;29.73;;
73512;SDS011;61754;55.008;73.348;2022-08-23T15:20:28;78.32;;;30.48;;
73512;SDS011;61754;55.008;73.348;2022-08-23T15:23:05;81.90;;;31.17;;
73512;SDS011;61754;55.008;73.348;2022-08-23T15:25:32;90.35;;;32.95;;
73512;SDS011;61754;55.008;73.348;2022-08-23T15:27:59;103.85;;;35.28;;
73512;SDS011;61754;55.008;73.348;2022-08-23T15:30:26;98.43;;;36.80;;
73512;SDS011;61754;55.008;73.348;2022-08-23T15:32:53;83.75;;;38.28;;
73512;SDS011;61754;55.008;73.348;2022-08-23T15:35:19;88.75;;;37.90;;
73512;SDS011;61754;55.008;73.348;2022-08-23T15:37:45;87.85;;;37.72;;
73512;SDS011;61754;55.008;73.348;2022-08-23T15:40:12;103.20;;;38.35;;
73512;SDS011;61754;55.008;73.348;2022-08-23T15:42:38;82.25;;;37.63;;
73512;SDS011;61754;55.008;73.348;2022-08-23T15:45:05;86.15;;;37.03;;
73512;SDS011;61754;55.008;73.348;2022-08-23T15:47:36;87.45;;;35.75;;
73512;SDS011;61754;55.008;73.348;2022-08-23T15:50:07;90.03;;;36.75;;
73512;SDS011;61754;55.008;73.348;2022-08-23T15:52:34;98.90;;;37.78;;
73512;SDS011;61754;55.008;73.348;2022-08-23T15:55:04;93.65;;;39.13;;
73512;SDS011;61754;55.008;73.348;2022-08-23T15:57:31;109.68;;;42.90;;
73512;SDS011;61754;55.008;73.348;2022-08-23T15:59:58;106.25;;;45.88;;
73512;SDS011;61754;55.008;73.348;2022-08-23T16:02:34;106.40;;;44.42;;
73512;SDS011;61754;55.008;73.348;2022-08-23T16:05:11;108.63;;;43.55;;
73512;SDS011;61754;55.008;73.348;2022-08-23T16:07:38;101.47;;;41.38;;
73512;SDS011;61754;55.008;73.348;2022-08-23T16:10:14;91.45;;;40.45;;
73512;SDS011;61754;55.008;73.348;2022-08-23T16:12:42;106.45;;;43.40;;
73512;SDS011;61754;55.008;73.348;2022-08-23T16:15:09;107.57;;;44.72;;
73512;SDS011;61754;55.008;73.348;2022-08-23T16:17:40;105.95;;;44.55;;
73512;SDS011;61754;55.008;73.348;2022-08-23T16:20:12;107.63;;;44.10;;
73512;SDS011;61754;55.008;73.348;2022-08-23T16:22:38;100.38;;;46.95;;
73512;SDS011;61754;55.008;73.348;2022-08-23T16:25:05;99.18;;;47.33;;
73512;SDS011;61754;55.008;73.348;2022-08-23T16:27:41;111.20;;;48.97;;
73512;SDS011;61754;55.008;73.348;2022-08-23T16:30:07;110.55;;;52.17;;
73512;SDS011;61754;55.008;73.348;2022-08-23T16:32:34;119.53;;;54.38;;
73512;SDS011;61754;55.008;73.348;2022-08-23T16:35:00;115.90;;;55.13;;